TimeMST,TemperatureF,Dew PointF,Humidity,Sea Level PressureIn,VisibilityMPH,Wind Direction,Wind SpeedMPH,Gust SpeedMPH,PrecipitationIn,Events,Conditions,WindDirDegrees,DateUTC
12:02 AM,-7.6,-14.8,71,30.05,10.0,WNW,8.1,-,N/A,,Mostly Cloudy,290,2013-01-30 07:02:00
12:51 AM,-5.1,-11.9,72,30.17,10.0,WNW,8.1,-,N/A,,Overcast,290,2013-01-30 07:51:00
1:31 AM,-5.8,-11.2,77,29.99,10.0,West,10.4,-,N/A,,Overcast,270,2013-01-30 08:31:00
1:51 AM,-4.0,-11.0,72,30.16,10.0,West,8.1,-,N/A,,Overcast,280,2013-01-30 08:51:00
2:51 AM,-2.9,-9.9,72,30.13,10.0,West,13.8,-,N/A,,Overcast,280,2013-01-30 09:51:00
3:51 AM,-2.9,-9.0,75,30.11,10.0,West,9.2,-,N/A,,Overcast,270,2013-01-30 10:51:00
4:24 AM,-2.2,-7.6,78,29.93,7.0,West,11.5,-,0.00,Snow,Light Snow,270,2013-01-30 11:24:00
4:51 AM,-2.0,-8.0,76,30.10,10.0,WNW,10.4,-,0.00,,Overcast,290,2013-01-30 11:51:00
5:51 AM,-0.9,-7.1,75,30.09,10.0,West,8.1,-,N/A,,Overcast,270,2013-01-30 12:51:00
6:18 AM,-0.4,-7.6,72,29.89,10.0,West,5.8,-,N/A,,Overcast,280,2013-01-30 13:18:00
6:51 AM,-0.9,-7.1,75,30.08,10.0,West,3.5,-,N/A,,Mostly Cloudy,260,2013-01-30 13:51:00
7:51 AM,-0.9,-7.1,75,30.08,10.0,West,3.5,-,N/A,,Overcast,280,2013-01-30 14:51:00
8:51 AM,-0.0,-6.0,76,30.08,10.0,NNW,3.5,-,N/A,,Overcast,340,2013-01-30 15:51:00
9:51 AM,1.9,-6.0,69,30.06,6.0,WNW,3.5,-,0.00,Snow,Light Snow,290,2013-01-30 16:51:00
10:17 AM,1.4,-5.8,72,29.84,2.5,West,4.6,-,0.00,Snow,Light Snow,280,2013-01-30 17:17:00
10:30 AM,3.2,-4.0,72,29.84,3.0,WNW,3.5,-,0.00,Snow,Light Snow,290,2013-01-30 17:30:00
10:51 AM,3.0,-4.0,73,30.05,4.0,Calm,Calm,-,0.00,Snow,Light Snow,0,2013-01-30 17:51:00
10:58 AM,3.2,-4.0,72,29.83,3.0,Calm,Calm,-,0.00,Snow,Light Snow,0,2013-01-30 17:58:00
11:04 AM,3.2,-4.0,72,29.83,2.0,WNW,3.5,-,0.00,Snow,Light Snow,290,2013-01-30 18:04:00
11:13 AM,3.2,-2.2,78,29.83,6.0,Calm,Calm,-,0.00,Snow,Light Snow,0,2013-01-30 18:13:00
11:51 AM,5.0,-2.0,73,30.03,8.0,WNW,3.5,-,0.00,Snow,Light Snow,290,2013-01-30 18:51:00
12:51 PM,7.0,-0.9,70,30.00,4.0,NW,5.8,-,0.00,Snow,Light Snow,320,2013-01-30 19:51:00
1:51 PM,7.0,-0.9,70,29.99,8.0,NNW,8.1,-,0.00,Snow,Light Snow,340,2013-01-30 20:51:00
3:51 PM,6.1,-2.0,69,30.01,4.0,NNW,6.9,-,0.00,Snow,Light Snow,340,2013-01-30 22:51:00
4:35 PM,5.0,-2.2,72,29.83,2.5,NNW,6.9,-,0.00,Snow,Light Snow,330,2013-01-30 23:35:00
4:49 PM,5.0,-2.2,72,29.84,3.0,NW,8.1,-,0.00,Snow,Light Snow,320,2013-01-30 23:49:00
4:51 PM,5.0,-2.0,73,30.03,3.0,NW,8.1,-,0.00,Snow,Light Snow,320,2013-01-30 23:51:00
5:19 PM,5.0,-2.2,72,29.83,4.0,WNW,6.9,-,0.00,Snow,Light Snow,300,2013-01-31 00:19:00
5:40 PM,5.0,-2.2,72,29.85,7.0,NW,8.1,-,0.00,Snow,Light Snow,310,2013-01-31 00:40:00
5:51 PM,5.0,-2.0,73,30.05,10.0,NW,11.5,-,0.00,,Overcast,310,2013-01-31 00:51:00
6:19 PM,5.0,-2.2,72,29.86,3.0,NW,11.5,-,0.00,Snow,Light Snow,320,2013-01-31 01:19:00
6:39 PM,3.2,-2.2,78,29.87,4.0,NW,10.4,-,0.00,Snow,Light Snow,310,2013-01-31 01:39:00
6:51 PM,3.9,-2.0,76,30.06,4.0,NW,13.8,-,0.00,Snow,Light Snow,310,2013-01-31 01:51:00
7:51 PM,3.9,-2.9,73,30.08,10.0,NW,13.8,-,0.00,Snow,Light Snow,310,2013-01-31 02:51:00
8:49 PM,3.2,-4.0,72,29.91,5.0,NW,19.6,24.2,0.00,Snow,Light Snow,320,2013-01-31 03:49:00
8:51 PM,3.0,-4.0,73,30.11,5.0,NW,16.1,24.2,0.00,Snow,Light Snow,320,2013-01-31 03:51:00
9:51 PM,1.9,-6.0,69,30.13,5.0,NNW,17.3,-,0.00,Snow,Light Snow,330,2013-01-31 04:51:00
10:44 PM,1.4,-7.6,66,29.95,10.0,NW,20.7,-,0.00,,Overcast,320,2013-01-31 05:44:00
10:51 PM,1.0,-7.1,69,30.15,9.0,NW,20.7,26.5,0.00,Snow,Light Snow,310,2013-01-31 05:51:00
11:07 PM,-0.4,-7.6,72,29.96,7.0,NW,20.7,32.2,0.00,,Mostly Cloudy,310,2013-01-31 06:07:00
11:17 PM,-0.4,-7.6,72,29.97,7.0,NW,23.0,31.1,0.00,,Overcast,310,2013-01-31 06:17:00
11:51 PM,-4.0,-11.0,72,30.21,8.0,NNW,19.6,26.5,0.00,Snow,Light Snow,330,2013-01-31 06:51:00